sensor_id;sensor_type;location;lat;lon;timestamp;pressure;altitude;pressure_sealevel;temperature;humidity
21730;BME280;11027;51.030;13.812;2022-12-07T00:02:14;100027.03;;;3.20;88.49
21730;BME280;11027;51.030;13.812;2022-12-07T00:04:39;100029.72;;;3.20;88.50
21730;BME280;11027;51.030;13.812;2022-12-07T00:07:05;100028.28;;;3.16;88.03
21730;BME280;11027;51.030;13.812;2022-12-07T00:09:30;100024.88;;;3.14;88.03
21730;BME280;11027;51.030;13.812;2022-12-07T00:11:55;100028.00;;;3.19;87.60
21730;BME280;11027;51.030;13.812;2022-12-07T00:14:21;100022.06;;;3.15;87.54
21730;BME280;11027;51.030;13.812;2022-12-07T00:16:48;100026.31;;;3.18;87.24
21730;BME280;11027;51.030;13.812;2022-12-07T00:19:14;100020.94;;;3.18;86.91
21730;BME280;11027;51.030;13.812;2022-12-07T00:21:39;100018.09;;;3.19;86.95
21730;BME280;11027;51.030;13.812;2022-12-07T00:24:05;100008.44;;;3.17;86.72
21730;BME280;11027;51.030;13.812;2022-12-07T00:26:34;100011.59;;;3.22;86.61
21730;BME280;11027;51.030;13.812;2022-12-07T00:29:02;100012.44;;;3.23;86.45
21730;BME280;11027;51.030;13.812;2022-12-07T00:31:31;100009.63;;;3.24;86.37
21730;BME280;11027;51.030;13.812;2022-12-07T00:33:58;100000.81;;;3.22;86.36
21730;BME280;11027;51.030;13.812;2022-12-07T00:36:25;100003.22;;;3.25;85.94
21730;BME280;11027;51.030;13.812;2022-12-07T00:38:50;100006.38;;;3.30;86.02
21730;BME280;11027;51.030;13.812;2022-12-07T00:41:19;99995.47;;;3.32;85.81
21730;BME280;11027;51.030;13.812;2022-12-07T00:43:46;100002.53;;;3.33;85.68
21730;BME280;11027;51.030;13.812;2022-12-07T00:46:13;99997.56;;;3.28;85.56
21730;BME280;11027;51.030;13.812;2022-12-07T00:48:38;100002.13;;;3.28;85.64
21730;BME280;11027;51.030;13.812;2022-12-07T00:51:05;99995.16;;;3.25;85.61
21730;BME280;11027;51.030;13.812;2022-12-07T00:53:31;99998.00;;;3.24;85.25
21730;BME280;11027;51.030;13.812;2022-12-07T00:55:58;99988.63;;;3.18;85.93
21730;BME280;11027;51.030;13.812;2022-12-07T00:58:29;99993.72;;;3.21;85.63
21730;BME280;11027;51.030;13.812;2022-12-07T01:00:59;99994.97;;;3.17;85.55
21730;BME280;11027;51.030;13.812;2022-12-07T01:03:26;99995.44;;;3.22;85.79
21730;BME280;11027;51.030;13.812;2022-12-07T01:05:53;99990.59;;;3.16;85.35
21730;BME280;11027;51.030;13.812;2022-12-07T01:08:19;99992.28;;;3.17;85.36
21730;BME280;11027;51.030;13.812;2022-12-07T01:10:46;99994.59;;;3.22;85.48
21730;BME280;11027;51.030;13.812;2022-12-07T01:13:11;99991.75;;;3.23;85.23
21730;BME280;11027;51.030;13.812;2022-12-07T01:15:44;99984.66;;;3.22;85.28
21730;BME280;11027;51.030;13.812;2022-12-07T01:18:09;100000.53;;;3.25;85.54
21730;BME280;11027;51.030;13.812;2022-12-07T01:20:35;99999.72;;;3.34;85.39
21730;BME280;11027;51.030;13.812;2022-12-07T01:23:01;99997.47;;;3.39;85.39
21730;BME280;11027;51.030;13.812;2022-12-07T01:25:26;99988.69;;;3.37;85.05
21730;BME280;11027;51.030;13.812;2022-12-07T01:27:52;99987.97;;;3.35;84.90
21730;BME280;11027;51.030;13.812;2022-12-07T01:30:17;99976.50;;;3.33;84.68
21730;BME280;11027;51.030;13.812;2022-12-07T01:32:42;99990.50;;;3.37;84.88
21730;BME280;11027;51.030;13.812;2022-12-07T01:35:08;99989.66;;;3.36;84.90
21730;BME280;11027;51.030;13.812;2022-12-07T01:37:37;99991.78;;;3.43;84.79
21730;BME280;11027;51.030;13.812;2022-12-07T01:40:05;99987.41;;;3.42;84.59
21730;BME280;11027;51.030;13.812;2022-12-07T01:42:30;99992.34;;;3.36;84.59
21730;BME280;11027;51.030;13.812;2022-12-07T01:47:50;99986.56;;;3.51;84.81
21730;BME280;11027;51.030;13.812;2022-12-07T01:50:17;99980.91;;;3.54;84.84
21730;BME280;11027;51.030;13.812;2022-12-07T01:52:44;99984.72;;;3.61;84.72
21730;BME280;11027;51.030;13.812;2022-12-07T01:55:13;99991.38;;;3.57;84.57
21730;BME280;11027;51.030;13.812;2022-12-07T01:57:41;99981.03;;;3.52;84.16
21730;BME280;11027;51.030;13.812;2022-12-07T02:00:09;99992.41;;;3.56;84.34
21730;BME280;11027;51.030;13.812;2022-12-07T02:02:38;99988.28;;;3.52;84.27
21730;BME280;11027;51.030;13.812;2022-12-07T02:05:07;99996.91;;;3.46;84.48
21730;BME280;11027;51.030;13.812;2022-12-07T02:07:34;99990.94;;;3.32;84.30
21730;BME280;11027;51.030;13.812;2022-12-07T02:10:14;99989.03;;;3.23;84.78
21730;BME280;11027;51.030;13.812;2022-12-07T02:12:40;99980.72;;;3.26;85.00
21730;BME280;11027;51.030;13.812;2022-12-07T02:15:07;99984.66;;;3.22;85.25
21730;BME280;11027;51.030;13.812;2022-12-07T02:20:26;99986.50;;;3.22;85.54
21730;BME280;11027;51.030;13.812;2022-12-07T02:26:08;99969.63;;;3.10;85.55
21730;BME280;11027;51.030;13.812;2022-12-07T02:29:05;99975.00;;;3.10;85.71
21730;BME280;11027;51.030;13.812;2022-12-07T02:31:36;99981.78;;;3.04;85.69
21730;BME280;11027;51.030;13.812;2022-12-07T02:34:17;99976.34;;;2.94;85.90
21730;BME280;11027;51.030;13.812;2022-12-07T02:36:51;99980.59;;;2.87;86.09
21730;BME280;11027;51.030;13.812;2022-12-07T02:39:23;99973.78;;;2.83;86.30
21730;BME280;11027;51.030;13.812;2022-12-07T02:41:56;99970.38;;;2.81;86.32
21730;BME280;11027;51.030;13.812;2022-12-07T02:44:25;99973.06;;;2.81;86.45
21730;BME280;11027;51.030;13.812;2022-12-07T02:47:02;99966.97;;;2.79;86.22
21730;BME280;11027;51.030;13.812;2022-12-07T02:49:29;99954.50;;;2.78;86.39
21730;BME280;11027;51.030;13.812;2022-12-07T02:51:55;99952.81;;;2.77;86.39
21730;BME280;11027;51.030;13.812;2022-12-07T02:54:21;99958.47;;;2.84;86.60
21730;BME280;11027;51.030;13.812;2022-12-07T03:08:02;99947.97;;;2.80;86.13
21730;BME280;11027;51.030;13.812;2022-12-07T03:10:46;99942.34;;;2.84;86.22
21730;BME280;11027;51.030;13.812;2022-12-07T03:15:50;99933.84;;;2.88;85.96
21730;BME280;11027;51.030;13.812;2022-12-07T03:18:22;99942.38;;;2.93;86.03
21730;BME280;11027;51.030;13.812;2022-12-07T03:20:51;99934.72;;;2.98;85.78
21730;BME280;11027;51.030;13.812;2022-12-07T03:23:19;99934.47;;;3.02;85.49
21730;BME280;11027;51.030;13.812;2022-12-07T03:25:49;99927.66;;;2.97;85.19
21730;BME280;11027;51.030;13.812;2022-12-07T03:28:20;99927.25;;;3.02;84.99
21730;BME280;11027;51.030;13.812;2022-12-07T03:30:52;99927.66;;;2.97;84.76
21730;BME280;11027;51.030;13.812;2022-12-07T03:33:28;99916.44;;;2.92;84.94
21730;BME280;11027;51.030;13.812;2022-12-07T03:36:02;99915.47;;;2.93;84.86
21730;BME280;11027;51.030;13.812;2022-12-07T03:38:37;99921.09;;;2.90;84.67
21730;BME280;11027;51.030;13.812;2022-12-07T03:41:17;99927.63;;;2.88;84.74
21730;BME280;11027;51.030;13.812;2022-12-07T03:43:44;99920.53;;;2.87;84.72
21730;BME280;11027;51.030;13.812;2022-12-07T03:46:20;99920.13;;;2.91;84.70
21730;BME280;11027;51.030;13.812;2022-12-07T03:48:59;99922.53;;;2.94;84.72
21730;BME280;11027;51.030;13.812;2022-12-07T03:51:45;99918.00;;;2.95;84.46
21730;BME280;11027;51.030;13.812;2022-12-07T03:54:33;99917.44;;;2.91;84.20
21730;BME280;11027;51.030;13.812;2022-12-07T03:57:01;99911.78;;;2.94;84.05
21730;BME280;11027;51.030;13.812;2022-12-07T03:59:28;99924.50;;;2.92;84.01
21730;BME280;11027;51.030;13.812;2022-12-07T04:01:55;99923.25;;;2.96;83.91
21730;BME280;11027;51.030;13.812;2022-12-07T04:04:22;99916.91;;;2.97;83.64
21730;BME280;11027;51.030;13.812;2022-12-07T04:06:48;99914.06;;;2.99;83.47
21730;BME280;11027;51.030;13.812;2022-12-07T04:09:14;99918.56;;;2.98;83.18
21730;BME280;11027;51.030;13.812;2022-12-07T04:11:39;99913.50;;;2.95;83.18
21730;BME280;11027;51.030;13.812;2022-12-07T04:14:05;99915.19;;;2.96;82.99
21730;BME280;11027;51.030;13.812;2022-12-07T04:19:14;99906.13;;;2.97;82.72
21730;BME280;11027;51.030;13.812;2022-12-07T04:21:40;99896.47;;;2.95;82.30
21730;BME280;11027;51.030;13.812;2022-12-07T04:24:05;99902.97;;;2.92;82.39
21730;BME280;11027;51.030;13.812;2022-12-07T04:26:31;99899.03;;;2.96;82.39
21730;BME280;11027;51.030;13.812;2022-12-07T04:28:56;99889.69;;;3.00;82.33
21730;BME280;11027;51.030;13.812;2022-12-07T04:31:21;99891.41;;;3.02;82.08
21730;BME280;11027;51.030;13.812;2022-12-07T04:33:46;99894.53;;;2.97;81.65
21730;BME280;11027;51.030;13.812;2022-12-07T04:36:12;99887.56;;;2.94;81.51
21730;BME280;11027;51.030;13.812;2022-12-07T04:38:37;99890.53;;;2.91;81.40
21730;BME280;11027;51.030;13.812;2022-12-07T04:41:06;99883.00;;;2.85;81.23
21730;BME280;11027;51.030;13.812;2022-12-07T04:43:32;99883.69;;;2.77;81.13
21730;BME280;11027;51.030;13.812;2022-12-07T04:45:58;99875.75;;;2.76;81.26
21730;BME280;11027;51.030;13.812;2022-12-07T04:48:23;99866.13;;;2.73;81.30
21730;BME280;11027;51.030;13.812;2022-12-07T04:50:49;99864.56;;;2.71;81.32
21730;BME280;11027;51.030;13.812;2022-12-07T04:53:17;99855.50;;;2.72;81.37
21730;BME280;11027;51.030;13.812;2022-12-07T04:55:44;99852.81;;;2.72;81.54
21730;BME280;11027;51.030;13.812;2022-12-07T04:58:09;99858.06;;;2.73;81.13
21730;BME280;11027;51.030;13.812;2022-12-07T05:00:34;99852.81;;;2.72;81.02
21730;BME280;11027;51.030;13.812;2022-12-07T05:03:00;99851.13;;;2.71;80.84
21730;BME280;11027;51.030;13.812;2022-12-07T05:05:25;99849.41;;;2.70;80.90
21730;BME280;11027;51.030;13.812;2022-12-07T05:07:50;99843.78;;;2.73;81.24
21730;BME280;11027;51.030;13.812;2022-12-07T05:10:16;99840.91;;;2.74;80.74
21730;BME280;11027;51.030;13.812;2022-12-07T05:12:41;99840.53;;;2.79;80.80
21730;BME280;11027;51.030;13.812;2022-12-07T05:15:07;99835.84;;;2.81;80.83
21730;BME280;11027;51.030;13.812;2022-12-07T05:17:32;99844.63;;;2.83;80.58
21730;BME280;11027;51.030;13.812;2022-12-07T05:19:58;99832.44;;;2.79;80.62
21730;BME280;11027;51.030;13.812;2022-12-07T05:22:23;99840.34;;;2.80;80.50
21730;BME280;11027;51.030;13.812;2022-12-07T05:24:53;99836.41;;;2.75;80.52
21730;BME280;11027;51.030;13.812;2022-12-07T05:27:18;99836.41;;;2.75;80.70
21730;BME280;11027;51.030;13.812;2022-12-07T05:29:43;99836.81;;;2.80;80.66
21730;BME280;11027;51.030;13.812;2022-12-07T05:32:09;99848.88;;;2.86;80.79
21730;BME280;11027;51.030;13.812;2022-12-07T05:34:34;99838.41;;;2.92;80.63
21730;BME280;11027;51.030;13.812;2022-12-07T05:36:59;99835.03;;;3.00;80.44
21730;BME280;11027;51.030;13.812;2022-12-07T05:39:25;99833.63;;;3.06;80.32
21730;BME280;11027;51.030;13.812;2022-12-07T05:41:50;99823.97;;;3.13;80.20
21730;BME280;11027;51.030;13.812;2022-12-07T05:44:34;99827.09;;;3.18;79.93
21730;BME280;11027;51.030;13.812;2022-12-07T05:46:59;99823.13;;;3.22;79.60
21730;BME280;11027;51.030;13.812;2022-12-07T05:49:25;99817.44;;;3.25;79.47
21730;BME280;11027;51.030;13.812;2022-12-07T05:51:50;99811.94;;;3.27;79.41
21730;BME280;11027;51.030;13.812;2022-12-07T05:54:15;99808.13;;;3.29;79.33
21730;BME280;11027;51.030;13.812;2022-12-07T05:56:41;99801.72;;;3.30;79.15
21730;BME280;11027;51.030;13.812;2022-12-07T05:59:08;99794.22;;;3.34;79.11
21730;BME280;11027;51.030;13.812;2022-12-07T06:02:00;99804.16;;;3.33;79.05
21730;BME280;11027;51.030;13.812;2022-12-07T06:04:28;99799.16;;;3.38;78.73
21730;BME280;11027;51.030;13.812;2022-12-07T06:06:54;99800.72;;;3.41;78.83
21730;BME280;11027;51.030;13.812;2022-12-07T06:09:21;99801.59;;;3.42;78.91
21730;BME280;11027;51.030;13.812;2022-12-07T06:11:46;99796.22;;;3.42;78.90
21730;BME280;11027;51.030;13.812;2022-12-07T06:14:30;99798.72;;;3.43;78.73
21730;BME280;11027;51.030;13.812;2022-12-07T06:16:56;99797.63;;;3.46;78.91
21730;BME280;11027;51.030;13.812;2022-12-07T06:19:21;99803.00;;;3.46;78.26
21730;BME280;11027;51.030;13.812;2022-12-07T06:21:47;99790.50;;;3.45;78.54
21730;BME280;11027;51.030;13.812;2022-12-07T06:24:14;99792.50;;;3.43;78.37
21730;BME280;11027;51.030;13.812;2022-12-07T06:26:40;99782.75;;;3.42;78.49
21730;BME280;11027;51.030;13.812;2022-12-07T06:29:06;99787.13;;;3.43;78.40
21730;BME280;11027;51.030;13.812;2022-12-07T06:31:32;99788.13;;;3.42;78.33
21730;BME280;11027;51.030;13.812;2022-12-07T06:34:05;99787.69;;;3.36;77.78
21730;BME280;11027;51.030;13.812;2022-12-07T06:36:31;99787.69;;;3.36;77.98
21730;BME280;11027;51.030;13.812;2022-12-07T06:38:57;99797.34;;;3.29;77.73
21730;BME280;11027;51.030;13.812;2022-12-07T06:41:22;99797.91;;;3.23;77.73
21730;BME280;11027;51.030;13.812;2022-12-07T06:43:49;99787.13;;;3.23;77.95
21730;BME280;11027;51.030;13.812;2022-12-07T06:46:15;99788.53;;;3.27;78.00
21730;BME280;11027;51.030;13.812;2022-12-07T06:48:41;99792.25;;;3.26;77.92
21730;BME280;11027;51.030;13.812;2022-12-07T06:51:06;99798.19;;;3.30;78.10
21730;BME280;11027;51.030;13.812;2022-12-07T06:53:31;99787.69;;;3.36;78.23
21730;BME280;11027;51.030;13.812;2022-12-07T06:55:57;99797.91;;;3.43;78.29
21730;BME280;11027;51.030;13.812;2022-12-07T06:58:22;99790.50;;;3.45;78.42
21730;BME280;11027;51.030;13.812;2022-12-07T07:00:48;99795.91;;;3.45;78.43
21730;BME280;11027;51.030;13.812;2022-12-07T07:03:14;99776.22;;;3.34;78.80
21730;BME280;11027;51.030;13.812;2022-12-07T07:05:40;99789.41;;;3.37;78.90
21730;BME280;11027;51.030;13.812;2022-12-07T07:08:05;99790.25;;;3.38;79.41
21730;BME280;11027;51.030;13.812;2022-12-07T07:10:30;99786.28;;;3.32;80.03
21730;BME280;11027;51.030;13.812;2022-12-07T07:12:56;99789.69;;;3.34;80.26
21730;BME280;11027;51.030;13.812;2022-12-07T07:15:21;99795.38;;;3.31;80.92
21730;BME280;11027;51.030;13.812;2022-12-07T07:17:46;99790.25;;;3.28;81.61
21730;BME280;11027;51.030;13.812;2022-12-07T07:20:12;99793.38;;;3.33;81.97
21730;BME280;11027;51.030;13.812;2022-12-07T07:22:37;99788.00;;;3.33;82.25
21730;BME280;11027;51.030;13.812;2022-12-07T07:25:03;99795.38;;;3.31;82.63
21730;BME280;11027;51.030;13.812;2022-12-07T07:27:28;99792.94;;;3.28;83.21
21730;BME280;11027;51.030;13.812;2022-12-07T07:29:54;99793.66;;;3.30;83.51
21730;BME280;11027;51.030;13.812;2022-12-07T07:32:19;99799.59;;;3.24;83.96
21730;BME280;11027;51.030;13.812;2022-12-07T07:34:46;99799.59;;;3.05;84.90
21730;BME280;11027;51.030;13.812;2022-12-07T07:37:11;99803.31;;;3.04;85.26
21730;BME280;11027;51.030;13.812;2022-12-07T07:39:38;99807.97;;;3.02;85.80
21730;BME280;11027;51.030;13.812;2022-12-07T07:42:04;99818.59;;;2.93;86.53
21730;BME280;11027;51.030;13.812;2022-12-07T07:44:29;99814.06;;;2.94;87.07
21730;BME280;11027;51.030;13.812;2022-12-07T07:46:54;99808.94;;;3.00;87.20
21730;BME280;11027;51.030;13.812;2022-12-07T07:49:20;99806.41;;;2.99;87.49
21730;BME280;11027;51.030;13.812;2022-12-07T07:51:45;99805.84;;;2.95;87.91
21730;BME280;11027;51.030;13.812;2022-12-07T07:54:10;99814.63;;;2.97;88.13
21730;BME280;11027;51.030;13.812;2022-12-07T07:56:36;99819.88;;;2.99;88.27
21730;BME280;11027;51.030;13.812;2022-12-07T07:59:01;99818.28;;;2.96;88.10
21730;BME280;11027;51.030;13.812;2022-12-07T08:01:26;99811.81;;;2.99;88.47
21730;BME280;11027;51.030;13.812;2022-12-07T08:03:52;99816.88;;;3.02;88.50
21730;BME280;11027;51.030;13.812;2022-12-07T08:06:17;99808.38;;;3.07;88.34
21730;BME280;11027;51.030;13.812;2022-12-07T08:08:42;99818.03;;;3.19;88.53
21730;BME280;11027;51.030;13.812;2022-12-07T08:11:08;99809.81;;;3.30;88.22
21730;BME280;11027;51.030;13.812;2022-12-07T08:13:34;99809.25;;;3.36;87.81
21730;BME280;11027;51.030;13.812;2022-12-07T08:16:07;99806.97;;;3.42;87.58
21730;BME280;11027;51.030;13.812;2022-12-07T08:18:37;99808.66;;;3.43;87.20
21730;BME280;11027;51.030;13.812;2022-12-07T08:21:04;99813.19;;;3.52;87.24
21730;BME280;11027;51.030;13.812;2022-12-07T08:23:30;99809.94;;;3.58;86.90
21730;BME280;11027;51.030;13.812;2022-12-07T08:26:00;99801.53;;;3.61;86.59
21730;BME280;11027;51.030;13.812;2022-12-07T08:28:25;99800.13;;;3.57;86.32
21730;BME280;11027;51.030;13.812;2022-12-07T08:30:51;99806.09;;;3.60;86.47
21730;BME280;11027;51.030;13.812;2022-12-07T08:33:16;99804.38;;;3.59;86.24
21730;BME280;11027;51.030;13.812;2022-12-07T08:35:42;99808.34;;;3.65;86.18
21730;BME280;11027;51.030;13.812;2022-12-07T08:38:07;99807.94;;;3.60;85.67
21730;BME280;11027;51.030;13.812;2022-12-07T08:40:32;99801.16;;;3.56;85.40
21730;BME280;11027;51.030;13.812;2022-12-07T08:42:58;99800.97;;;3.57;85.53
21730;BME280;11027;51.030;13.812;2022-12-07T08:45:23;99806.94;;;3.61;85.58
21730;BME280;11027;51.030;13.812;2022-12-07T08:47:56;99812.31;;;3.61;85.49
21730;BME280;11027;51.030;13.812;2022-12-07T08:50:23;99809.75;;;3.69;85.13
21730;BME280;11027;51.030;13.812;2022-12-07T08:52:51;99796.97;;;3.71;84.71
21730;BME280;11027;51.030;13.812;2022-12-07T08:55:18;99814.28;;;3.78;84.57
21730;BME280;11027;51.030;13.812;2022-12-07T08:57:43;99809.16;;;3.85;84.59
21730;BME280;11027;51.030;13.812;2022-12-07T09:00:09;99807.72;;;3.91;84.24
21730;BME280;11027;51.030;13.812;2022-12-07T09:02:35;99798.06;;;3.98;83.82
21730;BME280;11027;51.030;13.812;2022-12-07T09:05:01;99810.25;;;4.02;83.45
21730;BME280;11027;51.030;13.812;2022-12-07T09:07:26;99813.66;;;4.04;83.27
21730;BME280;11027;51.030;13.812;2022-12-07T09:09:52;99809.66;;;4.08;82.70
21730;BME280;11027;51.030;13.812;2022-12-07T09:12:17;99809.34;;;4.11;82.53
21730;BME280;11027;51.030;13.812;2022-12-07T09:14:42;99812.16;;;4.19;82.56
21730;BME280;11027;51.030;13.812;2022-12-07T09:17:10;99819.78;;;4.24;82.14
21730;BME280;11027;51.030;13.812;2022-12-07T09:19:36;99806.75;;;4.19;81.26
21730;BME280;11027;51.030;13.812;2022-12-07T09:22:02;99800.75;;;4.26;81.40
21730;BME280;11027;51.030;13.812;2022-12-07T09:24:28;99817.75;;;4.36;81.23
21730;BME280;11027;51.030;13.812;2022-12-07T09:26:53;99821.16;;;4.38;80.65
21730;BME280;11027;51.030;13.812;2022-12-07T09:29:18;99815.38;;;4.33;80.25
21730;BME280;11027;51.030;13.812;2022-12-07T09:31:44;99807.88;;;4.27;80.46
21730;BME280;11027;51.030;13.812;2022-12-07T09:34:09;99816.06;;;4.35;80.42
21730;BME280;11027;51.030;13.812;2022-12-07T09:36:34;99819.47;;;4.37;80.04
21730;BME280;11027;51.030;13.812;2022-12-07T09:39:00;99820.03;;;4.40;79.94
21730;BME280;11027;51.030;13.812;2022-12-07T09:41:26;99811.47;;;4.45;79.67
21730;BME280;11027;51.030;13.812;2022-12-07T09:43:53;99830.50;;;4.44;79.20
21730;BME280;11027;51.030;13.812;2022-12-07T09:46:20;99807.53;;;4.39;79.07
21730;BME280;11027;51.030;13.812;2022-12-07T09:48:48;99800.59;;;4.37;79.17
21730;BME280;11027;51.030;13.812;2022-12-07T09:51:18;99815.56;;;4.49;79.74
21730;BME280;11027;51.030;13.812;2022-12-07T09:53:45;99812.28;;;4.55;79.18
21730;BME280;11027;51.030;13.812;2022-12-07T09:56:14;99801.28;;;4.67;79.09
21730;BME280;11027;51.030;13.812;2022-12-07T09:58:41;99799.03;;;4.80;79.17
21730;BME280;11027;51.030;13.812;2022-12-07T10:03:32;99803.22;;;4.92;77.93
21730;BME280;11027;51.030;13.812;2022-12-07T10:05:57;99819.75;;;4.89;76.80
21730;BME280;11027;51.030;13.812;2022-12-07T10:08:24;99791.97;;;4.79;76.48
21730;BME280;11027;51.030;13.812;2022-12-07T10:10:55;99788.72;;;4.75;76.72
21730;BME280;11027;51.030;13.812;2022-12-07T10:13:45;99792.31;;;4.66;76.51
21730;BME280;11027;51.030;13.812;2022-12-07T10:16:38;99784.00;;;4.59;76.92
21730;BME280;11027;51.030;13.812;2022-12-07T10:22:10;99795.03;;;4.84;77.17
21730;BME280;11027;51.030;13.812;2022-12-07T10:24:36;99777.94;;;4.93;76.95
21730;BME280;11027;51.030;13.812;2022-12-07T10:27:05;99783.28;;;5.03;76.77
21730;BME280;11027;51.030;13.812;2022-12-07T10:29:36;99772.06;;;5.16;76.51
21730;BME280;11027;51.030;13.812;2022-12-07T10:32:23;99786.81;;;5.21;75.29
21730;BME280;11027;51.030;13.812;2022-12-07T10:34:50;99781.94;;;5.25;75.56
21730;BME280;11027;51.030;13.812;2022-12-07T10:37:19;99777.38;;;5.26;75.24
21730;BME280;11027;51.030;13.812;2022-12-07T10:39:49;99778.84;;;5.20;75.05
21730;BME280;11027;51.030;13.812;2022-12-07T10:42:35;99770.06;;;5.18;75.63
21730;BME280;11027;51.030;13.812;2022-12-07T10:45:17;99771.75;;;5.19;75.98
21730;BME280;11027;51.030;13.812;2022-12-07T11:01:36;99769.44;;;5.06;76.10
21730;BME280;11027;51.030;13.812;2022-12-07T11:04:18;99760.09;;;5.18;76.48
21730;BME280;11027;51.030;13.812;2022-12-07T11:12:21;99752.00;;;5.00;76.84
21730;BME280;11027;51.030;13.812;2022-12-07T11:14:56;99744.78;;;5.01;77.06
21730;BME280;11027;51.030;13.812;2022-12-07T11:17:35;99765.06;;;5.05;77.35
21730;BME280;11027;51.030;13.812;2022-12-07T11:20:13;99743.28;;;5.07;77.10
21730;BME280;11027;51.030;13.812;2022-12-07T11:25:42;99740.13;;;5.29;77.08
21730;BME280;11027;51.030;13.812;2022-12-07T11:28:30;99734.09;;;5.35;76.81
21730;BME280;11027;51.030;13.812;2022-12-07T11:33:53;99733.06;;;5.36;76.33
21730;BME280;11027;51.030;13.812;2022-12-07T11:36:58;99730.25;;;5.20;76.53
21730;BME280;11027;51.030;13.812;2022-12-07T11:39:34;99739.44;;;5.09;76.93
21730;BME280;11027;51.030;13.812;2022-12-07T11:42:05;99752.31;;;4.97;78.05
21730;BME280;11027;51.030;13.812;2022-12-07T11:44:56;99768.03;;;4.84;79.62
21730;BME280;11027;51.030;13.812;2022-12-07T11:47:34;99741.56;;;4.52;80.99
21730;BME280;11027;51.030;13.812;2022-12-07T11:52:53;99748.19;;;4.39;83.31
21730;BME280;11027;51.030;13.812;2022-12-07T11:55:28;99742.78;;;4.39;84.05
21730;BME280;11027;51.030;13.812;2022-12-07T11:58:03;99733.44;;;4.34;84.43
21730;BME280;11027;51.030;13.812;2022-12-07T12:00:29;99726.75;;;4.38;84.92
21730;BME280;11027;51.030;13.812;2022-12-07T12:03:01;99730.56;;;4.45;85.00
21730;BME280;11027;51.030;13.812;2022-12-07T12:05:29;99729.25;;;4.49;84.98
21730;BME280;11027;51.030;13.812;2022-12-07T12:08:25;99715.97;;;4.56;84.84
21730;BME280;11027;51.030;13.812;2022-12-07T12:19:04;99709.06;;;4.89;85.19
21730;BME280;11027;51.030;13.812;2022-12-07T12:21:37;99708.56;;;5.12;84.42
21730;BME280;11027;51.030;13.812;2022-12-07T12:24:10;99702.91;;;5.23;83.08
21730;BME280;11027;51.030;13.812;2022-12-07T12:26:38;99714.03;;;5.20;82.39
21730;BME280;11027;51.030;13.812;2022-12-07T12:29:27;99716.13;;;5.08;81.33
21730;BME280;11027;51.030;13.812;2022-12-07T12:32:16;99714.84;;;4.94;81.40
21730;BME280;11027;51.030;13.812;2022-12-07T12:42:51;99706.38;;;4.89;82.52
21730;BME280;11027;51.030;13.812;2022-12-07T12:45:23;99721.69;;;4.89;83.28
21730;BME280;11027;51.030;13.812;2022-12-07T12:47:59;99731.50;;;4.72;83.08
21730;BME280;11027;51.030;13.812;2022-12-07T12:50:34;99718.25;;;4.60;83.14
21730;BME280;11027;51.030;13.812;2022-12-07T12:53:24;99716.03;;;4.46;82.92
21730;BME280;11027;51.030;13.812;2022-12-07T12:58:41;99717.59;;;4.31;82.83
21730;BME280;11027;51.030;13.812;2022-12-07T13:01:36;99710.25;;;4.23;82.84
21730;BME280;11027;51.030;13.812;2022-12-07T13:04:17;99733.81;;;4.21;82.46
21730;BME280;11027;51.030;13.812;2022-12-07T13:06:43;99744.34;;;4.14;83.38
21730;BME280;11027;51.030;13.812;2022-12-07T13:09:20;99734.22;;;3.98;84.79
21730;BME280;11027;51.030;13.812;2022-12-07T13:11:47;99724.78;;;3.75;86.23
21730;BME280;11027;51.030;13.812;2022-12-07T13:17:00;99728.91;;;3.69;87.64
21730;BME280;11027;51.030;13.812;2022-12-07T13:24:59;99720.72;;;3.61;87.93
21730;BME280;11027;51.030;13.812;2022-12-07T13:27:28;99725.88;;;3.54;87.93
21730;BME280;11027;51.030;13.812;2022-12-07T13:29:56;99716.25;;;3.52;88.33
21730;BME280;11027;51.030;13.812;2022-12-07T13:32:27;99717.63;;;3.56;88.60
21730;BME280;11027;51.030;13.812;2022-12-07T13:34:53;99715.38;;;3.51;88.63
21730;BME280;11027;51.030;13.812;2022-12-07T13:37:30;99716.81;;;3.46;88.85
21730;BME280;11027;51.030;13.812;2022-12-07T13:39:59;99723.63;;;3.40;89.03
21730;BME280;11027;51.030;13.812;2022-12-07T13:42:30;99714.00;;;3.37;89.12
21730;BME280;11027;51.030;13.812;2022-12-07T13:44:57;99725.06;;;3.34;89.37
21730;BME280;11027;51.030;13.812;2022-12-07T13:49:57;99712.91;;;3.20;90.18
21730;BME280;11027;51.030;13.812;2022-12-07T13:52:27;99724.22;;;3.24;90.38
21730;BME280;11027;51.030;13.812;2022-12-07T13:55:05;99743.19;;;3.32;90.77
21730;BME280;11027;51.030;13.812;2022-12-07T13:57:38;99726.78;;;3.35;90.86
21730;BME280;11027;51.030;13.812;2022-12-07T14:00:15;99714.72;;;3.39;90.69
21730;BME280;11027;51.030;13.812;2022-12-07T14:02:59;99724.19;;;3.44;90.87
21730;BME280;11027;51.030;13.812;2022-12-07T14:05:27;99716.66;;;3.47;90.93
21730;BME280;11027;51.030;13.812;2022-12-07T14:07:57;99712.53;;;3.53;90.84
21730;BME280;11027;51.030;13.812;2022-12-07T14:10:30;99715.34;;;3.61;90.94
21730;BME280;11027;51.030;13.812;2022-12-07T14:12:56;99723.97;;;3.74;91.04
21730;BME280;11027;51.030;13.812;2022-12-07T14:15:33;99723.38;;;3.80;90.43
21730;BME280;11027;51.030;13.812;2022-12-07T14:18:02;99724.44;;;3.88;90.10
21730;BME280;11027;51.030;13.812;2022-12-07T14:20:39;99722.59;;;3.98;89.72
21730;BME280;11027;51.030;13.812;2022-12-07T14:23:19;99702.09;;;4.05;89.33
21730;BME280;11027;51.030;13.812;2022-12-07T14:25:51;99716.88;;;4.01;89.02
21730;BME280;11027;51.030;13.812;2022-12-07T14:28:43;99711.50;;;4.01;88.71
21730;BME280;11027;51.030;13.812;2022-12-07T14:31:12;99708.66;;;4.03;88.81
21730;BME280;11027;51.030;13.812;2022-12-07T14:33:38;99710.66;;;4.00;88.60
21730;BME280;11027;51.030;13.812;2022-12-07T14:36:04;99704.72;;;3.97;88.68
21730;BME280;11027;51.030;13.812;2022-12-07T14:38:29;99707.41;;;3.97;88.67
21730;BME280;11027;51.030;13.812;2022-12-07T14:40:55;99711.50;;;4.01;88.73